^^
Your Local Weather - Clay, NY Station Historical Data
Daily Summary for October 21, 2017 Units:  English    Metric   Both
« Previous Day
Next Day »
Daily Weekly Monthly Yearly Custom
  High: Low: Average:
Temperature: 71.2 °F 38.2 °F 52.4 °F
Dew Point: 53.3 °F 36.1 °F 43.8 °F
Humidity: 93% 40% 75%
Wind Speed: 2.0mph 0.0mph 0.2mph
Wind Gust: 5.0mph - -
Wind- - NE
Pressure: 30.28 in 30.17 in -
Precipitation: 0.00 in    
Historical Graphs
 
 
Tabular Data for October 21, 2017
Time Temperature Dew Point Pressure Wind Wind Speed Wind Gust Humidity Rainfall Rate (Hourly) solar
00:04 43.1 °F 39.8 °F 30.17 in Calm     88% 0.00 in 0 W/m2
00:08 43.1 °F 39.8 °F 30.17 in Calm     88% 0.00 in 0 W/m2
00:14 43.0 °F 39.7 °F 30.17 in Calm     88% 0.00 in 0 W/m2
00:20 42.9 °F 39.6 °F 30.18 in Calm     88% 0.00 in 0 W/m2
00:26 42.9 °F 39.6 °F 30.18 in Calm     88% 0.00 in 0 W/m2
00:32 42.9 °F 39.6 °F 30.18 in Calm     88% 0.00 in 0 W/m2
00:38 42.8 °F 39.5 °F 30.18 in Calm     88% 0.00 in 0 W/m2
00:44 42.7 °F 39.4 °F 30.18 in Calm   1.0 mph 88% 0.00 in 0 W/m2
00:50 42.5 °F 39.2 °F 30.18 in Calm     88% 0.00 in 0 W/m2
00:56 42.4 °F 39.1 °F 30.19 in Calm     88% 0.00 in 0 W/m2
01:02 42.3 °F 39.0 °F 30.19 in Calm     88% 0.00 in 0 W/m2
01:08 42.2 °F 38.9 °F 30.19 in Calm     88% 0.00 in 0 W/m2
01:14 42.1 °F 38.8 °F 30.19 in Calm     88% 0.00 in 0 W/m2
01:20 42.2 °F 39.2 °F 30.19 in Calm     89% 0.00 in 0 W/m2
01:26 42.2 °F 39.2 °F 30.19 in Calm     89% 0.00 in 0 W/m2
01:32 42.4 °F 39.4 °F 30.19 in Calm     89% 0.00 in 0 W/m2
01:38 42.3 °F 39.3 °F 30.19 in Calm     89% 0.00 in 0 W/m2
01:44 42.2 °F 39.2 °F 30.19 in Calm     89% 0.00 in 0 W/m2
01:50 42.1 °F 39.1 °F 30.19 in Calm     89% 0.00 in 0 W/m2
01:56 42.0 °F 39.0 °F 30.19 in Calm     89% 0.00 in 0 W/m2
02:02 42.0 °F 39.0 °F 30.19 in Calm     89% 0.00 in 0 W/m2
02:08 42.1 °F 39.1 °F 30.19 in Calm     89% 0.00 in 0 W/m2
02:14 42.3 °F 39.3 °F 30.19 in Calm     89% 0.00 in 0 W/m2
02:20 42.3 °F 39.0 °F 30.20 in Calm     88% 0.00 in 0 W/m2
02:26 42.3 °F 39.0 °F 30.20 in Calm     88% 0.00 in 0 W/m2
02:32 42.0 °F 38.7 °F 30.20 in Calm     88% 0.00 in 0 W/m2
02:38 41.8 °F 38.5 °F 30.20 in Calm     88% 0.00 in 0 W/m2
02:44 41.8 °F 38.5 °F 30.20 in Calm     88% 0.00 in 0 W/m2
02:50 41.6 °F 38.3 °F 30.19 in Calm     88% 0.00 in 0 W/m2
02:56 41.4 °F 38.4 °F 30.19 in Calm     89% 0.00 in 0 W/m2
03:02 41.3 °F 38.3 °F 30.19 in Calm     89% 0.00 in 0 W/m2
03:08 41.1 °F 37.8 °F 30.19 in Calm     88% 0.00 in 0 W/m2
03:14 40.8 °F 37.8 °F 30.20 in Calm     89% 0.00 in 0 W/m2
03:22 40.6 °F 37.6 °F 30.20 in Calm     89% 0.00 in 0 W/m2
03:28 40.6 °F 37.6 °F 30.20 in Calm     89% 0.00 in 0 W/m2
03:34 40.6 °F 37.6 °F 30.20 in Calm     89% 0.00 in 0 W/m2
03:40 40.4 °F 37.7 °F 30.21 in Calm     90% 0.00 in 0 W/m2
03:46 40.3 °F 37.3 °F 30.21 in Calm     89% 0.00 in 0 W/m2
03:52 40.0 °F 37.3 °F 30.21 in Calm     90% 0.00 in 0 W/m2
03:58 39.9 °F 37.2 °F 30.21 in Calm     90% 0.00 in 0 W/m2
04:04 39.7 °F 37.0 °F 30.21 in Calm     90% 0.00 in 0 W/m2
04:10 39.7 °F 37.0 °F 30.21 in Calm     90% 0.00 in 0 W/m2
04:16 39.7 °F 37.0 °F 30.21 in Calm     90% 0.00 in 0 W/m2
04:22 39.6 °F 36.9 °F 30.21 in Calm     90% 0.00 in 0 W/m2
04:28 39.4 °F 36.7 °F 30.21 in Calm     90% 0.00 in 0 W/m2
04:34 39.3 °F 36.6 °F 30.21 in Calm     90% 0.00 in 0 W/m2
04:40 39.0 °F 36.3 °F 30.21 in Calm     90% 0.00 in 0 W/m2
04:46 39.0 °F 36.6 °F 30.22 in Calm     91% 0.00 in 0 W/m2
04:52 39.0 °F 36.6 °F 30.22 in Calm     91% 0.00 in 0 W/m2
04:58 38.9 °F 36.5 °F 30.22 in Calm     91% 0.00 in 0 W/m2
05:04 38.7 °F 36.3 °F 30.22 in Calm     91% 0.00 in 0 W/m2
05:10 38.7 °F 36.3 °F 30.22 in Calm     91% 0.00 in 0 W/m2
05:16 38.8 °F 36.4 °F 30.22 in Calm   1.0 mph 91% 0.00 in 0 W/m2
05:22 38.8 °F 36.4 °F 30.22 in Calm     91% 0.00 in 0 W/m2
05:34 38.8 °F 36.4 °F 30.22 in Calm     91% 0.00 in 0 W/m2
05:40 38.7 °F 36.3 °F 30.23 in Calm     91% 0.00 in 0 W/m2
05:46 38.5 °F 36.1 °F 30.23 in Calm     91% 0.00 in 0 W/m2
05:52 38.5 °F 36.1 °F 30.23 in Calm     91% 0.00 in 0 W/m2
05:58 38.7 °F 36.6 °F 30.23 in Calm     92% 0.00 in 0 W/m2
06:04 38.6 °F 36.5 °F 30.23 in Calm     92% 0.00 in 0 W/m2
06:09 38.5 °F 36.4 °F 30.24 in Calm     92% 0.00 in 0 W/m2
06:16 38.4 °F 36.3 °F 30.24 in Calm     92% 0.00 in 0 W/m2
06:22 38.4 °F 36.3 °F 30.24 in Calm     92% 0.00 in 0 W/m2
06:28 38.4 °F 36.3 °F 30.24 in Calm     92% 0.00 in 0 W/m2
06:34 38.3 °F 36.2 °F 30.24 in Calm     92% 0.00 in 0 W/m2
06:40 38.2 °F 36.1 °F 30.24 in Calm     92% 0.00 in 0 W/m2
06:46 38.2 °F 36.1 °F 30.24 in Calm     92% 0.00 in 0 W/m2
06:52 38.2 °F 36.1 °F 30.24 in Calm     92% 0.00 in 0 W/m2
06:58 38.3 °F 36.2 °F 30.24 in Calm     92% 0.00 in 0 W/m2
07:04 38.3 °F 36.2 °F 30.24 in Calm     92% 0.00 in 0 W/m2
07:10 38.4 °F 36.3 °F 30.24 in Calm     92% 0.00 in 0 W/m2
07:16 38.5 °F 36.4 °F 30.24 in Calm     92% 0.00 in 0 W/m2
07:22 38.4 °F 36.3 °F 30.25 in Calm     92% 0.00 in 0 W/m2
07:28 38.4 °F 36.3 °F 30.25 in Calm     92% 0.00 in 5 W/m2
07:34 38.5 °F 36.4 °F 30.25 in Calm     92% 0.00 in 7 W/m2
07:40 38.7 °F 36.9 °F 30.25 in Calm     93% 0.00 in 9 W/m2
07:46 38.9 °F 37.0 °F 30.26 in Calm     93% 0.00 in 12 W/m2
07:52 39.0 °F 37.1 °F 30.26 in Calm     93% 0.00 in 14 W/m2
07:58 39.2 °F 37.3 °F 30.26 in Calm     93% 0.00 in 18 W/m2
08:04 39.2 °F 37.3 °F 30.26 in Calm     93% 0.00 in 21 W/m2
08:10 39.6 °F 37.7 °F 30.26 in Calm     93% 0.00 in 28 W/m2
08:16 39.9 °F 38.0 °F 30.27 in Calm     93% 0.00 in 32 W/m2
08:22 40.2 °F 38.3 °F 30.27 in Calm     93% 0.00 in 32 W/m2
08:28 40.5 °F 38.6 °F 30.27 in Calm     93% 0.00 in 37 W/m2
08:34 40.8 °F 38.9 °F 30.27 in Calm     93% 0.00 in 109 W/m2
08:40 41.5 °F 39.6 °F 30.27 in Calm     93% 0.00 in 169 W/m2
08:46 42.5 °F 40.6 °F 30.27 in Calm     93% 0.00 in 125 W/m2
08:52 43.8 °F 41.9 °F 30.27 in Calm     93% 0.00 in 114 W/m2
08:58 44.9 °F 42.7 °F 30.27 in Calm   1.0 mph 92% 0.00 in 109 W/m2
09:04 46.1 °F 43.0 °F 30.28 in Calm     89% 0.00 in 134 W/m2
09:09 47.4 °F 43.1 °F 30.28 in Calm     85% 0.00 in 165 W/m2
09:16 48.8 °F 41.9 °F 30.28 in Calm     77% 0.00 in 193 W/m2
09:22 49.7 °F 41.4 °F 30.28 in Calm   1.0 mph 73% 0.00 in 230 W/m2
09:28 50.1 °F 41.8 °F 30.28 in NNE 1.0 mph 2.0 mph 73% 0.00 in 306 W/m2
09:34 50.8 °F 42.1 °F 30.27 in NNE 1.0 mph 1.0 mph 72% 0.00 in 322 W/m2
09:40 51.6 °F 42.5 °F 30.27 in NNE 1.0 mph 2.0 mph 71% 0.00 in 343 W/m2
09:46 52.7 °F 43.2 °F 30.28 in NNE 1.0 mph 2.0 mph 70% 0.00 in 360 W/m2
09:52 53.6 °F 42.9 °F 30.28 in NNE 1.0 mph 1.0 mph 67% 0.00 in 383 W/m2
10:00 54.4 °F 43.3 °F 30.28 in Calm     66% 0.00 in 397 W/m2
10:12 55.5 °F 43.9 °F 30.28 in Calm     65% 0.00 in 436 W/m2
10:18 56.9 °F 45.3 °F 30.28 in Calm     65% 0.00 in 436 W/m2
10:30 57.9 °F 44.1 °F 30.27 in Calm     60% 0.00 in 459 W/m2
10:36 58.2 °F 43.5 °F 30.27 in NNE 1.0 mph 2.0 mph 58% 0.00 in 487 W/m2
10:42 59.0 °F 43.8 °F 30.27 in NNE 2.0 mph 2.0 mph 57% 0.00 in 499 W/m2
10:48 59.5 °F 43.3 °F 30.27 in NNE 1.0 mph 2.0 mph 55% 0.00 in 508 W/m2
10:54 60.4 °F 45.1 °F 30.27 in Calm   1.0 mph 57% 0.00 in 512 W/m2
11:00 61.5 °F 44.2 °F 30.27 in Calm   1.0 mph 53% 0.00 in 534 W/m2
11:06 62.4 °F 44.5 °F 30.27 in Calm   1.0 mph 52% 0.00 in 552 W/m2
11:12 62.9 °F 44.0 °F 30.27 in Calm     50% 0.00 in 531 W/m2
11:18 63.0 °F 45.1 °F 30.27 in Calm     52% 0.00 in 531 W/m2
11:24 63.5 °F 44.0 °F 30.27 in Calm     49% 0.00 in 480 W/m2
11:30 63.7 °F 44.2 °F 30.27 in Calm     49% 0.00 in 466 W/m2
11:36 65.2 °F 44.5 °F 30.27 in Calm     47% 0.00 in 504 W/m2
11:42 65.2 °F 46.6 °F 30.27 in Calm   1.0 mph 51% 0.00 in 522 W/m2
11:48 65.5 °F 46.4 °F 30.27 in East 1.0 mph 3.0 mph 50% 0.00 in 483 W/m2
11:54 66.1 °F 45.3 °F 30.26 in East 1.0 mph 1.0 mph 47% 0.00 in 415 W/m2
12:00 66.5 °F 45.6 °F 30.26 in Calm     47% 0.00 in 462 W/m2
12:06 67.4 °F 45.9 °F 30.26 in Calm     46% 0.00 in 445 W/m2
12:12 68.2 °F 48.3 °F 30.26 in Calm     49% 0.00 in 455 W/m2
12:18 68.9 °F 48.4 °F 30.26 in Calm     48% 0.00 in 510 W/m2
12:24 68.6 °F 48.7 °F 30.25 in Calm   1.0 mph 49% 0.00 in 548 W/m2
12:30 69.3 °F 49.3 °F 30.25 in Calm   1.0 mph 49% 0.00 in 519 W/m2
12:36 69.1 °F 47.4 °F 30.25 in Calm   1.0 mph 46% 0.00 in 429 W/m2
12:42 69.8 °F 46.9 °F 30.25 in Calm     44% 0.00 in 438 W/m2
12:48 70.0 °F 46.5 °F 30.25 in East 1.0 mph 2.0 mph 43% 0.00 in 408 W/m2
12:54 69.9 °F 48.7 °F 30.25 in East 1.0 mph 1.0 mph 47% 0.00 in 388 W/m2
13:00 70.5 °F 46.9 °F 30.24 in Calm     43% 0.00 in 387 W/m2
13:06 70.9 °F 47.3 °F 30.24 in Calm   1.0 mph 43% 0.00 in 364 W/m2
13:12 70.9 °F 49.7 °F 30.24 in Calm     47% 0.00 in 336 W/m2
13:18 70.6 °F 45.1 °F 30.24 in Calm     40% 0.00 in 343 W/m2
13:23 71.1 °F 48.7 °F 30.24 in Calm     45% 0.00 in 332 W/m2
13:30 71.2 °F 49.4 °F 30.24 in Calm     46% 0.00 in 334 W/m2
13:36 69.5 °F 48.9 °F 30.24 in East 2.0 mph 2.0 mph 48% 0.00 in 323 W/m2
13:42 69.9 °F 49.3 °F 30.24 in NNE 2.0 mph 3.0 mph 48% 0.00 in 320 W/m2
13:48 69.4 °F 49.9 °F 30.24 in NE 2.0 mph 3.0 mph 50% 0.00 in 338 W/m2
13:54 69.2 °F 49.8 °F 30.24 in NE 2.0 mph 2.0 mph 50% 0.00 in 369 W/m2
14:00 69.1 °F 50.7 °F 30.24 in NE 1.0 mph 2.0 mph 52% 0.00 in 394 W/m2
14:06 68.7 °F 49.8 °F 30.24 in NE 2.0 mph 3.0 mph 51% 0.00 in 399 W/m2
14:12 69.1 °F 51.2 °F 30.24 in NE 2.0 mph 2.0 mph 53% 0.00 in 373 W/m2
14:18 69.5 °F 48.9 °F 30.24 in NE 2.0 mph 3.0 mph 48% 0.00 in 343 W/m2
14:26 69.5 °F 48.9 °F 30.24 in NE 2.0 mph 3.0 mph 48% 0.00 in 325 W/m2
14:32 70.0 °F 52.1 °F 30.24 in NNE 2.0 mph 3.0 mph 53% 0.00 in 357 W/m2
14:38 70.3 °F 50.2 °F 30.23 in NNE 1.0 mph 5.0 mph 49% 0.00 in 360 W/m2
14:43 70.2 °F 49.0 °F 30.23 in NNE 1.0 mph 5.0 mph 47% 0.00 in 318 W/m2
14:50 69.6 °F 50.1 °F 30.23 in NE 2.0 mph 3.0 mph 50% 0.00 in 276 W/m2
14:56 69.6 °F 50.7 °F 30.23 in NE 2.0 mph 2.0 mph 51% 0.00 in 250 W/m2
15:00 69.8 °F 49.8 °F 30.23 in NE 1.0 mph 1.0 mph 49% 0.00 in 243 W/m2
15:06 69.6 °F 51.7 °F 30.22 in NNE 1.0 mph 2.0 mph 53% 0.00 in 243 W/m2
15:12 69.5 °F 50.0 °F 30.22 in NNE 2.0 mph 2.0 mph 50% 0.00 in 260 W/m2
15:18 69.5 °F 49.5 °F 30.22 in NNE 2.0 mph 2.0 mph 49% 0.00 in 260 W/m2
15:24 69.4 °F 48.9 °F 30.22 in ENE 1.0 mph 3.0 mph 48% 0.00 in 243 W/m2
15:29 69.7 °F 49.1 °F 30.22 in ENE 1.0 mph 1.0 mph 48% 0.00 in 239 W/m2
15:36 69.5 °F 48.9 °F 30.22 in ENE 1.0 mph 3.0 mph 48% 0.00 in 244 W/m2
15:42 69.5 °F 49.5 °F 30.22 in ENE 2.0 mph 2.0 mph 49% 0.00 in 251 W/m2
15:48 69.5 °F 50.0 °F 30.22 in ENE 1.0 mph 2.0 mph 50% 0.00 in 255 W/m2
15:54 69.7 °F 49.1 °F 30.22 in NE 1.0 mph 3.0 mph 48% 0.00 in 258 W/m2
16:00 70.2 °F 53.3 °F 30.22 in NE 1.0 mph 1.0 mph 55% 0.00 in 260 W/m2
16:06 70.2 °F 49.0 °F 30.22 in Calm   2.0 mph 47% 0.00 in 251 W/m2
16:12 70.0 °F 48.8 °F 30.22 in NE 1.0 mph 1.0 mph 47% 0.00 in 183 W/m2
16:18 70.0 °F 49.4 °F 30.22 in NE 1.0 mph 1.0 mph 48% 0.00 in 158 W/m2
16:23 69.7 °F 49.7 °F 30.22 in NE 1.0 mph 1.0 mph 49% 0.00 in 125 W/m2
16:30 69.1 °F 50.7 °F 30.22 in Calm     52% 0.00 in 111 W/m2
16:36 68.7 °F 50.9 °F 30.22 in Calm     53% 0.00 in 100 W/m2
16:42 68.5 °F 51.7 °F 30.22 in Calm     55% 0.00 in 113 W/m2
16:48 68.3 °F 52.0 °F 30.22 in Calm     56% 0.00 in 97 W/m2
16:55 67.6 °F 52.3 °F 30.22 in Calm     58% 0.00 in 84 W/m2
17:02 67.1 °F 52.3 °F 30.22 in Calm     59% 0.00 in 69 W/m2
17:08 66.3 °F 52.9 °F 30.22 in Calm     62% 0.00 in 54 W/m2
17:14 65.7 °F 52.3 °F 30.22 in Calm     62% 0.00 in 42 W/m2
17:20 65.2 °F 53.1 °F 30.22 in Calm     65% 0.00 in 40 W/m2
17:26 64.6 °F 52.6 °F 30.22 in Calm     65% 0.00 in 39 W/m2
17:32 64.0 °F 52.8 °F 30.22 in Calm     67% 0.00 in 35 W/m2
17:38 63.7 °F 52.9 °F 30.22 in Calm     68% 0.00 in 30 W/m2
17:44 63.3 °F 53.0 °F 30.22 in Calm     69% 0.00 in 26 W/m2
17:50 62.9 °F 53.0 °F 30.22 in Calm     70% 0.00 in 19 W/m2
17:55 62.4 °F 52.9 °F 30.22 in Calm     71% 0.00 in 14 W/m2
18:02 61.5 °F 52.4 °F 30.22 in Calm     72% 0.00 in 7 W/m2
18:08 60.7 °F 51.2 °F 30.22 in Calm     71% 0.00 in 0 W/m2
18:14 60.0 °F 51.3 °F 30.22 in Calm     73% 0.00 in 0 W/m2
18:20 59.4 °F 50.7 °F 30.23 in Calm     73% 0.00 in 0 W/m2
18:26 58.8 °F 50.2 °F 30.23 in Calm     73% 0.00 in 0 W/m2
18:32 58.2 °F 49.6 °F 30.23 in Calm     73% 0.00 in 0 W/m2
18:38 57.8 °F 49.6 °F 30.23 in Calm     74% 0.00 in 0 W/m2
18:44 57.4 °F 49.9 °F 30.24 in Calm     76% 0.00 in 0 W/m2
18:49 57.1 °F 50.3 °F 30.24 in Calm     78% 0.00 in 0 W/m2
18:56 56.7 °F 50.3 °F 30.24 in Calm     79% 0.00 in 0 W/m2
19:02 56.1 °F 50.3 °F 30.24 in Calm     81% 0.00 in 0 W/m2
19:14 55.0 °F 49.6 °F 30.24 in Calm     82% 0.00 in 0 W/m2
19:20 54.4 °F 49.0 °F 30.24 in Calm     82% 0.00 in 0 W/m2
19:26 53.9 °F 48.5 °F 30.24 in Calm     82% 0.00 in 0 W/m2
19:32 53.6 °F 48.2 °F 30.24 in Calm     82% 0.00 in 0 W/m2
19:38 53.2 °F 47.8 °F 30.24 in Calm     82% 0.00 in 0 W/m2
19:44 53.0 °F 47.7 °F 30.24 in Calm     82% 0.00 in 0 W/m2
19:50 52.9 °F 47.6 °F 30.24 in Calm     82% 0.00 in 0 W/m2
19:56 52.7 °F 47.7 °F 30.24 in Calm     83% 0.00 in 0 W/m2
20:02 52.4 °F 47.7 °F 30.24 in Calm     84% 0.00 in 0 W/m2
20:08 52.4 °F 48.0 °F 30.24 in Calm     85% 0.00 in 0 W/m2
20:14 52.3 °F 47.9 °F 30.24 in Calm     85% 0.00 in 0 W/m2
20:20 52.0 °F 47.6 °F 30.24 in Calm     85% 0.00 in 0 W/m2
20:26 51.8 °F 47.7 °F 30.24 in Calm     86% 0.00 in 0 W/m2
20:32 51.6 °F 47.5 °F 30.24 in Calm     86% 0.00 in 0 W/m2
20:38 51.4 °F 47.4 °F 30.24 in Calm     86% 0.00 in 0 W/m2
20:44 51.3 °F 47.3 °F 30.24 in Calm     86% 0.00 in 0 W/m2
20:49 51.1 °F 46.7 °F 30.24 in Calm     85% 0.00 in 0 W/m2
20:56 51.1 °F 46.7 °F 30.24 in Calm     85% 0.00 in 0 W/m2
21:04 50.8 °F 46.1 °F 30.24 in Calm     84% 0.00 in 0 W/m2
21:10 50.9 °F 46.2 °F 30.24 in Calm     84% 0.00 in 0 W/m2
21:16 51.0 °F 46.3 °F 30.24 in Calm     84% 0.00 in 0 W/m2
21:22 50.9 °F 46.2 °F 30.24 in Calm     84% 0.00 in 0 W/m2
21:28 50.8 °F 46.1 °F 30.24 in Calm     84% 0.00 in 0 W/m2
21:34 50.6 °F 45.6 °F 30.24 in Calm     83% 0.00 in 0 W/m2
21:40 50.3 °F 45.3 °F 30.24 in Calm     83% 0.00 in 0 W/m2
21:46 49.9 °F 45.3 °F 30.24 in Calm     84% 0.00 in 0 W/m2
21:52 49.8 °F 45.5 °F 30.24 in Calm     85% 0.00 in 0 W/m2
21:58 49.4 °F 45.4 °F 30.24 in Calm     86% 0.00 in 0 W/m2
22:04 49.1 °F 44.8 °F 30.24 in Calm     85% 0.00 in 0 W/m2
22:10 49.0 °F 45.0 °F 30.24 in Calm     86% 0.00 in 0 W/m2
22:16 48.9 °F 44.9 °F 30.24 in Calm     86% 0.00 in 0 W/m2
22:22 48.7 °F 44.7 °F 30.25 in Calm     86% 0.00 in 0 W/m2
22:28 48.4 °F 44.4 °F 30.25 in Calm     86% 0.00 in 0 W/m2
22:34 48.1 °F 44.1 °F 30.25 in Calm     86% 0.00 in 0 W/m2
22:40 48.0 °F 44.3 °F 30.25 in Calm     87% 0.00 in 0 W/m2
22:46 47.8 °F 44.1 °F 30.25 in Calm     87% 0.00 in 0 W/m2
22:52 47.6 °F 44.2 °F 30.25 in Calm     88% 0.00 in 0 W/m2
22:58 47.4 °F 44.0 °F 30.25 in Calm     88% 0.00 in 0 W/m2
23:04 47.2 °F 43.8 °F 30.25 in Calm     88% 0.00 in 0 W/m2
23:20 46.9 °F 43.8 °F 30.25 in Calm     89% 0.00 in 0 W/m2
23:26 46.8 °F 43.7 °F 30.25 in Calm     89% 0.00 in 0 W/m2
23:32 46.9 °F 43.8 °F 30.25 in Calm     89% 0.00 in 0 W/m2
23:34 47.0 °F 43.9 °F 30.25 in Calm     89% 0.00 in 0 W/m2
23:38 47.1 °F 44.0 °F 30.25 in Calm     89% 0.00 in 0 W/m2
23:44 46.9 °F 43.8 °F 30.25 in Calm     89% 0.00 in 0 W/m2
23:50 46.8 °F 43.7 °F 30.25 in Calm     89% 0.00 in 0 W/m2
23:56 46.9 °F 44.1 °F 30.25 in Calm     90% 0.00 in 0 W/m2
Country Meadow, Clay, NY, USA
Compliments of Weather Underground - 2 mb